RYR8ZE LGSA-EPKK
Flight info
| Callsign | RYR8ZE |
|---|---|
| Flight time | N/A |
| Altitude | 37000 |
| Route | SOKRI UY151 VELOP DCT ATV UM749 SKP UL617 BAMOS DCT PEREN DCT ATFIR N133 USALI DCT ERDOM DCT NARKA DCT KSC DCT KOJOT DCT RAZEC N133 LENOV |
| Aircraft | B738/M-SDE3FGILRWY/SB1 |
Departure
| Time | 2026-05-01 13:48 |
|---|---|
| Airport | Chania International Airport (LGSA) |
Arrival
| Time | N/A |
|---|---|
| Airport | Kraków John Paul II International Airport (EPKK) |
| Time | Latitude | Longitude | Altitude | Speed | Heading |
|---|---|---|---|---|---|
| 2026-05-01 13:33 | 35.53829 | 24.13982 | 459 ft | 0 kts | 37° |
| 2026-05-01 13:42 | 35.53816 | 24.13981 | 451 ft | 2 kts | 327° |
| 2026-05-01 13:43 | 35.53804 | 24.13995 | 451 ft | 2 kts | 308° |
| 2026-05-01 13:43 | 35.53795 | 24.14011 | 452 ft | 2 kts | 298° |
| 2026-05-01 13:43 | 35.53792 | 24.14018 | 452 ft | 0 kts | 295° |
| 2026-05-01 13:45 | 35.53793 | 24.14014 | 452 ft | 2 kts | 296° |
| 2026-05-01 13:45 | 35.53809 | 24.13968 | 452 ft | 10 kts | 292° |
| 2026-05-01 13:45 | 35.53832 | 24.13861 | 450 ft | 15 kts | 256° |
| 2026-05-01 13:46 | 35.53757 | 24.13772 | 448 ft | 16 kts | 246° |
| 2026-05-01 13:46 | 35.53787 | 24.13640 | 446 ft | 17 kts | 295° |
| 2026-05-01 13:46 | 35.53802 | 24.13508 | 441 ft | 16 kts | 238° |
| 2026-05-01 13:46 | 35.53743 | 24.13463 | 433 ft | 8 kts | 195° |
| 2026-05-01 13:47 | 35.53672 | 24.13447 | 434 ft | 11 kts | 164° |
| 2026-05-01 13:47 | 35.53649 | 24.13491 | 440 ft | 6 kts | 100° |
| 2026-05-01 13:47 | 35.53591 | 24.13693 | 439 ft | 59 kts | 112° |
| 2026-05-01 13:47 | 35.53352 | 24.14433 | 456 ft | 126 kts | 112° |
| 2026-05-01 13:48 | 35.52975 | 24.15627 | 544 ft | 172 kts | 107° |
| 2026-05-01 13:48 | 35.52528 | 24.16956 | 1413 ft | 166 kts | 108° |
| 2026-05-01 13:48 | 35.52100 | 24.18287 | 2283 ft | 166 kts | 105° |
| 2026-05-01 13:48 | 35.51668 | 24.19732 | 2745 ft | 197 kts | 106° |
| 2026-05-01 13:49 | 35.51166 | 24.21392 | 3156 ft | 214 kts | 107° |
| 2026-05-01 13:49 | 35.50636 | 24.23140 | 3788 ft | 223 kts | 109° |
| 2026-05-01 13:49 | 35.50060 | 24.24947 | 4510 ft | 229 kts | 112° |
| 2026-05-01 13:49 | 35.49464 | 24.26769 | 5267 ft | 234 kts | 113° |
| 2026-05-01 13:50 | 35.48841 | 24.28674 | 5886 ft | 245 kts | 113° |
| 2026-05-01 13:50 | 35.48209 | 24.30619 | 6677 ft | 247 kts | 113° |
| 2026-05-01 13:50 | 35.47566 | 24.32600 | 7366 ft | 252 kts | 114° |
| 2026-05-01 13:50 | 35.46914 | 24.34613 | 8055 ft | 257 kts | 112° |
| 2026-05-01 13:51 | 35.46653 | 24.36786 | 8688 ft | 264 kts | 79° |
| 2026-05-01 13:51 | 35.47359 | 24.38828 | 9386 ft | 262 kts | 46° |
| 2026-05-01 13:51 | 35.48778 | 24.40160 | 10037 ft | 257 kts | 15° |
| 2026-05-01 13:51 | 35.50497 | 24.40458 | 10653 ft | 247 kts | 345° |
| 2026-05-01 13:52 | 35.52115 | 24.39752 | 10993 ft | 256 kts | 325° |
| 2026-05-01 13:52 | 35.53702 | 24.38566 | 11204 ft | 279 kts | 322° |
| 2026-05-01 13:52 | 35.55394 | 24.37205 | 11389 ft | 303 kts | 322° |
| 2026-05-01 13:52 | 35.57218 | 24.35720 | 11593 ft | 325 kts | 322° |
| 2026-05-01 13:53 | 35.59139 | 24.34166 | 12109 ft | 335 kts | 322° |
| 2026-05-01 13:53 | 35.63084 | 24.31011 | 13663 ft | 340 kts | 322° |
| 2026-05-01 13:53 | 35.65057 | 24.29453 | 14347 ft | 344 kts | 324° |
| 2026-05-01 13:54 | 35.67262 | 24.28225 | 15024 ft | 354 kts | 337° |
| 2026-05-01 13:54 | 35.69701 | 24.27569 | 15705 ft | 364 kts | 347° |
| 2026-05-01 13:54 | 35.72254 | 24.27315 | 16355 ft | 369 kts | 350° |
| 2026-05-01 13:54 | 35.74828 | 24.27119 | 16982 ft | 373 kts | 350° |
| 2026-05-01 13:55 | 35.77437 | 24.26933 | 17624 ft | 377 kts | 350° |
| 2026-05-01 13:55 | 35.80067 | 24.26745 | 18259 ft | 380 kts | 350° |
| 2026-05-01 13:55 | 35.82721 | 24.26548 | 18802 ft | 384 kts | 349° |
| 2026-05-01 13:55 | 35.85398 | 24.26344 | 19362 ft | 386 kts | 349° |
| 2026-05-01 13:56 | 35.88087 | 24.26133 | 19944 ft | 388 kts | 349° |
| 2026-05-01 13:56 | 35.90789 | 24.25918 | 20503 ft | 390 kts | 348° |
| 2026-05-01 13:56 | 35.93509 | 24.25698 | 21056 ft | 393 kts | 348° |
| 2026-05-01 13:56 | 35.96246 | 24.25475 | 21596 ft | 395 kts | 348° |
| 2026-05-01 13:57 | 35.99001 | 24.25249 | 22130 ft | 398 kts | 348° |
| 2026-05-01 13:57 | 36.00831 | 24.25099 | 22479 ft | 399 kts | 347° |
| 2026-05-01 13:57 | 36.04561 | 24.24793 | 23156 ft | 403 kts | 347° |
| 2026-05-01 13:57 | 36.07367 | 24.24562 | 23649 ft | 406 kts | 347° |
| 2026-05-01 13:58 | 36.10188 | 24.24330 | 24078 ft | 408 kts | 347° |
| 2026-05-01 13:58 | 36.13025 | 24.24098 | 24524 ft | 409 kts | 347° |
| 2026-05-01 13:58 | 36.15870 | 24.23864 | 24946 ft | 411 kts | 347° |
| 2026-05-01 13:58 | 36.18730 | 24.23629 | 25362 ft | 413 kts | 346° |
| 2026-05-01 13:59 | 36.21605 | 24.23392 | 25759 ft | 415 kts | 346° |
| 2026-05-01 13:59 | 36.24491 | 24.23154 | 26158 ft | 417 kts | 346° |
| 2026-05-01 13:59 | 36.27387 | 24.22916 | 26549 ft | 418 kts | 346° |
| 2026-05-01 13:59 | 36.30299 | 24.22675 | 26944 ft | 420 kts | 346° |
| 2026-05-01 14:00 | 36.33226 | 24.22434 | 27311 ft | 422 kts | 346° |
| 2026-05-01 14:00 | 36.36165 | 24.22190 | 27680 ft | 424 kts | 346° |
| 2026-05-01 14:00 | 36.39111 | 24.21947 | 28058 ft | 425 kts | 346° |
| 2026-05-01 14:00 | 36.42071 | 24.21702 | 28409 ft | 427 kts | 346° |
| 2026-05-01 14:01 | 36.45040 | 24.21456 | 28738 ft | 429 kts | 345° |
| 2026-05-01 14:01 | 36.48029 | 24.21207 | 29071 ft | 431 kts | 345° |
| 2026-05-01 14:01 | 36.51028 | 24.20959 | 29408 ft | 433 kts | 345° |
| 2026-05-01 14:01 | 36.54034 | 24.20709 | 29762 ft | 434 kts | 345° |
| 2026-05-01 14:02 | 36.57042 | 24.20462 | 30242 ft | 431 kts | 345° |
| 2026-05-01 14:02 | 36.60021 | 24.20220 | 30687 ft | 428 kts | 345° |
| 2026-05-01 14:02 | 36.62952 | 24.19979 | 31028 ft | 428 kts | 345° |
| 2026-05-01 14:02 | 36.65926 | 24.19731 | 31306 ft | 429 kts | 345° |
| 2026-05-01 14:03 | 36.68903 | 24.19481 | 31614 ft | 429 kts | 345° |
| 2026-05-01 14:03 | 36.71914 | 24.19229 | 31977 ft | 428 kts | 344° |
| 2026-05-01 14:03 | 36.74880 | 24.18983 | 32333 ft | 427 kts | 344° |
| 2026-05-01 14:03 | 36.77802 | 24.18739 | 32655 ft | 426 kts | 344° |
| 2026-05-01 14:04 | 36.80759 | 24.18491 | 32976 ft | 426 kts | 344° |
| 2026-05-01 14:04 | 36.83717 | 24.18243 | 33297 ft | 425 kts | 344° |
| 2026-05-01 14:04 | 36.86664 | 24.17997 | 33629 ft | 425 kts | 344° |
| 2026-05-01 14:04 | 36.88658 | 24.17830 | 33841 ft | 424 kts | 344° |
| 2026-05-01 14:05 | 36.92557 | 24.17502 | 34196 ft | 424 kts | 344° |
| 2026-05-01 14:05 | 36.95503 | 24.17254 | 34450 ft | 424 kts | 344° |
| 2026-05-01 14:05 | 36.98444 | 24.17007 | 34696 ft | 424 kts | 344° |
| 2026-05-01 14:05 | 37.01388 | 24.16759 | 34934 ft | 424 kts | 344° |
| 2026-05-01 14:06 | 37.03336 | 24.16595 | 35083 ft | 424 kts | 344° |
| 2026-05-01 14:06 | 37.06277 | 24.16347 | 35331 ft | 423 kts | 344° |
| 2026-05-01 14:06 | 37.09214 | 24.16101 | 35576 ft | 423 kts | 344° |
| 2026-05-01 14:06 | 37.12148 | 24.15853 | 35794 ft | 423 kts | 344° |
| 2026-05-01 14:07 | 37.15085 | 24.15605 | 35995 ft | 423 kts | 344° |
| 2026-05-01 14:07 | 37.18031 | 24.15354 | 36095 ft | 426 kts | 344° |
| 2026-05-01 14:08 | 37.26922 | 24.14600 | 36102 ft | 425 kts | 344° |
| 2026-05-01 14:08 | 37.32776 | 24.14113 | 36108 ft | 421 kts | 344° |
| 2026-05-01 14:09 | 37.38606 | 24.13619 | 36115 ft | 419 kts | 344° |
| 2026-05-01 14:09 | 37.44424 | 24.13122 | 36121 ft | 419 kts | 344° |
| 2026-05-01 14:10 | 37.50242 | 24.12624 | 36125 ft | 419 kts | 344° |
| 2026-05-01 14:10 | 37.56063 | 24.12125 | 36128 ft | 420 kts | 344° |
| 2026-05-01 14:11 | 37.61905 | 24.11624 | 36137 ft | 422 kts | 344° |
| 2026-05-01 14:11 | 37.70717 | 24.10870 | 36133 ft | 425 kts | 344° |
| 2026-05-01 14:12 | 37.76628 | 24.10362 | 36145 ft | 427 kts | 344° |
| 2026-05-01 14:12 | 37.82565 | 24.09852 | 36146 ft | 429 kts | 344° |
| 2026-05-01 14:13 | 37.88533 | 24.09339 | 36137 ft | 430 kts | 344° |
| 2026-05-01 14:13 | 37.94506 | 24.08826 | 36139 ft | 431 kts | 344° |
| 2026-05-01 14:14 | 38.00491 | 24.08310 | 36142 ft | 431 kts | 344° |
| 2026-05-01 14:14 | 38.06470 | 24.07794 | 36138 ft | 431 kts | 344° |
| 2026-05-01 14:15 | 38.12449 | 24.07278 | 36143 ft | 430 kts | 344° |
| 2026-05-01 14:15 | 38.18369 | 24.06766 | 36148 ft | 428 kts | 344° |
| 2026-05-01 14:16 | 38.24347 | 24.06247 | 36158 ft | 427 kts | 344° |
| 2026-05-01 14:16 | 38.30228 | 24.05735 | 36164 ft | 426 kts | 344° |
| 2026-05-01 14:17 | 38.36149 | 24.05219 | 36172 ft | 426 kts | 344° |
| 2026-05-01 14:17 | 38.42055 | 24.04702 | 36165 ft | 426 kts | 345° |
| 2026-05-01 14:18 | 38.47954 | 24.04187 | 36168 ft | 425 kts | 345° |
| 2026-05-01 14:18 | 38.52904 | 24.03753 | 36168 ft | 425 kts | 345° |
| 2026-05-01 14:19 | 38.59734 | 24.03155 | 36166 ft | 423 kts | 345° |
| 2026-05-01 14:19 | 38.65612 | 24.02637 | 36176 ft | 424 kts | 345° |
| 2026-05-01 14:20 | 38.74480 | 24.01851 | 36180 ft | 428 kts | 345° |
| 2026-05-01 14:21 | 38.80443 | 24.01323 | 36180 ft | 431 kts | 345° |
| 2026-05-01 14:21 | 38.86459 | 24.00789 | 36249 ft | 437 kts | 346° |
| 2026-05-01 14:22 | 38.92533 | 24.00252 | 36643 ft | 437 kts | 346° |
| 2026-05-01 14:22 | 38.95564 | 23.99987 | 36866 ft | 437 kts | 346° |
| 2026-05-01 14:22 | 38.98599 | 23.99719 | 37031 ft | 437 kts | 346° |
| 2026-05-01 14:22 | 39.01637 | 23.99450 | 37198 ft | 438 kts | 346° |
| 2026-05-01 14:23 | 39.04685 | 23.99179 | 37385 ft | 438 kts | 347° |
| 2026-05-01 14:23 | 39.07723 | 23.98910 | 37582 ft | 438 kts | 347° |
| 2026-05-01 14:23 | 39.10763 | 23.98639 | 37730 ft | 438 kts | 347° |
| 2026-05-01 14:23 | 39.13804 | 23.98368 | 37899 ft | 439 kts | 347° |
| 2026-05-01 14:24 | 39.16853 | 23.98096 | 38075 ft | 438 kts | 347° |
| 2026-05-01 14:24 | 39.19897 | 23.97824 | 38169 ft | 439 kts | 347° |
| 2026-05-01 14:24 | 39.26003 | 23.97277 | 38165 ft | 440 kts | 348° |
| 2026-05-01 14:25 | 39.32082 | 23.96735 | 38177 ft | 439 kts | 348° |
| 2026-05-01 14:25 | 39.38176 | 23.96189 | 38182 ft | 439 kts | 348° |
| 2026-05-01 14:26 | 39.47320 | 23.95366 | 38189 ft | 439 kts | 348° |
| 2026-05-01 14:27 | 39.53423 | 23.94816 | 38185 ft | 440 kts | 348° |
| 2026-05-01 14:27 | 39.59536 | 23.94264 | 38186 ft | 441 kts | 348° |
| 2026-05-01 14:28 | 39.68724 | 23.93433 | 38191 ft | 442 kts | 349° |
| 2026-05-01 14:28 | 39.74852 | 23.92877 | 38182 ft | 442 kts | 349° |
| 2026-05-01 14:29 | 39.80990 | 23.92320 | 38184 ft | 442 kts | 349° |
| 2026-05-01 14:30 | 39.93261 | 23.91203 | 38184 ft | 443 kts | 349° |
| 2026-05-01 14:31 | 40.02480 | 23.90361 | 38199 ft | 443 kts | 349° |
| 2026-05-01 14:31 | 40.08594 | 23.89801 | 38192 ft | 443 kts | 349° |
| 2026-05-01 14:32 | 40.14750 | 23.89236 | 38195 ft | 443 kts | 349° |
| 2026-05-01 14:32 | 40.20900 | 23.88672 | 38192 ft | 443 kts | 350° |
| 2026-05-01 14:33 | 40.27053 | 23.88106 | 38209 ft | 442 kts | 350° |
| 2026-05-01 14:33 | 40.33200 | 23.87539 | 38196 ft | 442 kts | 350° |
| 2026-05-01 14:34 | 40.39339 | 23.86971 | 38211 ft | 442 kts | 350° |
| 2026-05-01 14:34 | 40.45476 | 23.86403 | 38207 ft | 442 kts | 350° |
| 2026-05-01 14:35 | 40.51608 | 23.85835 | 38208 ft | 442 kts | 350° |
| 2026-05-01 14:35 | 40.57697 | 23.85269 | 38218 ft | 441 kts | 350° |
| 2026-05-01 14:36 | 40.63819 | 23.84699 | 38218 ft | 441 kts | 350° |
| 2026-05-01 14:36 | 40.69941 | 23.84128 | 38215 ft | 441 kts | 351° |
| 2026-05-01 14:37 | 40.76060 | 23.83557 | 38217 ft | 441 kts | 351° |
| 2026-05-01 14:37 | 40.82185 | 23.82983 | 38219 ft | 441 kts | 351° |
| 2026-05-01 14:38 | 40.88310 | 23.82409 | 38216 ft | 441 kts | 351° |
| 2026-05-01 14:38 | 40.94439 | 23.81833 | 38221 ft | 441 kts | 351° |
| 2026-05-01 14:39 | 41.00568 | 23.81256 | 38221 ft | 442 kts | 351° |
| 2026-05-01 14:39 | 41.06701 | 23.80678 | 38226 ft | 442 kts | 351° |
| 2026-05-01 14:40 | 41.12846 | 23.80098 | 38221 ft | 443 kts | 351° |
| 2026-05-01 14:40 | 41.18992 | 23.79516 | 38222 ft | 443 kts | 351° |
| 2026-05-01 14:41 | 41.25122 | 23.78935 | 38223 ft | 441 kts | 351° |
| 2026-05-01 14:41 | 41.30921 | 23.78384 | 38208 ft | 441 kts | 351° |
| 2026-05-01 14:42 | 41.37048 | 23.77801 | 38222 ft | 441 kts | 351° |
| 2026-05-01 14:42 | 41.43160 | 23.77164 | 38229 ft | 440 kts | 350° |
| 2026-05-01 14:43 | 41.49244 | 23.76289 | 38208 ft | 440 kts | 349° |
| 2026-05-01 14:43 | 41.55327 | 23.75379 | 38225 ft | 440 kts | 349° |
| 2026-05-01 14:44 | 41.61412 | 23.74494 | 38223 ft | 440 kts | 349° |
| 2026-05-01 14:44 | 41.70514 | 23.73195 | 38235 ft | 440 kts | 349° |
| 2026-05-01 14:45 | 41.79664 | 23.71889 | 38241 ft | 441 kts | 350° |
| 2026-05-01 14:46 | 41.85771 | 23.71015 | 38248 ft | 441 kts | 350° |
| 2026-05-01 14:46 | 41.94931 | 23.69699 | 38264 ft | 441 kts | 350° |
| 2026-05-01 14:47 | 42.00997 | 23.68827 | 38264 ft | 441 kts | 350° |
| 2026-05-01 14:48 | 42.10151 | 23.67506 | 38281 ft | 441 kts | 350° |
| 2026-05-01 14:48 | 42.19297 | 23.66183 | 38270 ft | 440 kts | 350° |
| 2026-05-01 14:49 | 42.31479 | 23.64332 | 38273 ft | 438 kts | 347° |
| 2026-05-01 14:50 | 42.43371 | 23.60871 | 38281 ft | 436 kts | 344° |
| 2026-05-01 14:51 | 42.52248 | 23.58236 | 38276 ft | 437 kts | 345° |
| 2026-05-01 14:52 | 42.60160 | 23.55936 | 38275 ft | 436 kts | 345° |
| 2026-05-01 14:53 | 42.69073 | 23.53345 | 38270 ft | 437 kts | 345° |
| 2026-05-01 14:53 | 42.75023 | 23.51609 | 38269 ft | 437 kts | 345° |
| 2026-05-01 14:54 | 42.80979 | 23.49869 | 38273 ft | 438 kts | 346° |
| 2026-05-01 14:54 | 42.86495 | 23.48253 | 38278 ft | 439 kts | 346° |
| 2026-05-01 14:55 | 42.92462 | 23.46503 | 38287 ft | 439 kts | 346° |
| 2026-05-01 14:55 | 42.98435 | 23.44747 | 38299 ft | 439 kts | 346° |
| 2026-05-01 14:56 | 43.04416 | 23.42985 | 38312 ft | 439 kts | 346° |
| 2026-05-01 14:56 | 43.10389 | 23.41222 | 38308 ft | 440 kts | 346° |
| 2026-05-01 14:57 | 43.16367 | 23.39454 | 38315 ft | 439 kts | 346° |
| 2026-05-01 14:57 | 43.25285 | 23.36810 | 38311 ft | 439 kts | 346° |
| 2026-05-01 14:58 | 43.31243 | 23.35039 | 38310 ft | 438 kts | 346° |
| 2026-05-01 14:58 | 43.37196 | 23.33266 | 38313 ft | 437 kts | 346° |
| 2026-05-01 14:59 | 43.43134 | 23.31494 | 38318 ft | 436 kts | 346° |
| 2026-05-01 14:59 | 43.49064 | 23.29720 | 38311 ft | 436 kts | 347° |
| 2026-05-01 15:00 | 43.57903 | 23.26829 | 38312 ft | 434 kts | 344° |
| 2026-05-01 15:01 | 43.63738 | 23.24679 | 38303 ft | 434 kts | 344° |
| 2026-05-01 15:01 | 43.69567 | 23.22538 | 38305 ft | 433 kts | 345° |
| 2026-05-01 15:02 | 43.75384 | 23.20425 | 38304 ft | 433 kts | 345° |
| 2026-05-01 15:02 | 43.81211 | 23.18317 | 38303 ft | 432 kts | 345° |
| 2026-05-01 15:03 | 43.87028 | 23.16212 | 38296 ft | 432 kts | 345° |
| 2026-05-01 15:03 | 43.92841 | 23.14104 | 38293 ft | 432 kts | 345° |
| 2026-05-01 15:04 | 43.98648 | 23.11993 | 38298 ft | 431 kts | 345° |
| 2026-05-01 15:04 | 44.04451 | 23.09879 | 38297 ft | 431 kts | 345° |
| 2026-05-01 15:05 | 44.10257 | 23.07760 | 38289 ft | 431 kts | 345° |
| 2026-05-01 15:05 | 44.16062 | 23.05637 | 38293 ft | 431 kts | 345° |
| 2026-05-01 15:06 | 44.21865 | 23.03510 | 38286 ft | 431 kts | 345° |
| 2026-05-01 15:06 | 44.27631 | 23.01393 | 38286 ft | 431 kts | 345° |
| 2026-05-01 15:07 | 44.33436 | 22.99257 | 38279 ft | 431 kts | 345° |
| 2026-05-01 15:07 | 44.39239 | 22.97117 | 38277 ft | 431 kts | 346° |
| 2026-05-01 15:08 | 44.45037 | 22.94974 | 38272 ft | 431 kts | 346° |
| 2026-05-01 15:08 | 44.50830 | 22.92830 | 38271 ft | 430 kts | 346° |
| 2026-05-01 15:09 | 44.56617 | 22.90683 | 38265 ft | 430 kts | 346° |
| 2026-05-01 15:09 | 44.62404 | 22.88531 | 38264 ft | 430 kts | 346° |
| 2026-05-01 15:10 | 44.68182 | 22.86378 | 38262 ft | 429 kts | 346° |
| 2026-05-01 15:10 | 44.76839 | 22.83145 | 38264 ft | 429 kts | 346° |
| 2026-05-01 15:11 | 44.85486 | 22.79905 | 38257 ft | 428 kts | 346° |
| 2026-05-01 15:12 | 44.91239 | 22.77744 | 38250 ft | 428 kts | 346° |
| 2026-05-01 15:12 | 44.99870 | 22.74493 | 38253 ft | 428 kts | 346° |
| 2026-05-01 15:14 | 45.14223 | 22.69065 | 38262 ft | 429 kts | 346° |
| 2026-05-01 15:14 | 45.22903 | 22.65769 | 38269 ft | 428 kts | 346° |
| 2026-05-01 15:15 | 45.34384 | 22.61392 | 38277 ft | 429 kts | 347° |
| 2026-05-01 15:16 | 45.45901 | 22.56984 | 38274 ft | 428 kts | 347° |
| 2026-05-01 15:18 | 45.60277 | 22.51454 | 38271 ft | 427 kts | 347° |
| 2026-05-01 15:19 | 45.71724 | 22.47031 | 38274 ft | 425 kts | 347° |
| 2026-05-01 15:19 | 45.80290 | 22.43709 | 38260 ft | 425 kts | 347° |
| 2026-05-01 15:20 | 45.88835 | 22.40383 | 38267 ft | 424 kts | 348° |
| 2026-05-01 15:21 | 45.94520 | 22.38165 | 38262 ft | 423 kts | 348° |
| 2026-05-01 15:21 | 46.00185 | 22.35950 | 38253 ft | 422 kts | 348° |
| 2026-05-01 15:22 | 46.08654 | 22.32630 | 38261 ft | 420 kts | 348° |
| 2026-05-01 15:22 | 46.14288 | 22.30416 | 38260 ft | 419 kts | 348° |
| 2026-05-01 15:23 | 46.19917 | 22.28199 | 38257 ft | 419 kts | 348° |
| 2026-05-01 15:23 | 46.25546 | 22.25977 | 38264 ft | 419 kts | 348° |
| 2026-05-01 15:24 | 46.31172 | 22.23752 | 38256 ft | 419 kts | 348° |
| 2026-05-01 15:24 | 46.36761 | 22.21536 | 38258 ft | 419 kts | 348° |
| 2026-05-01 15:25 | 46.42392 | 22.19299 | 38257 ft | 420 kts | 348° |
| 2026-05-01 15:25 | 46.48028 | 22.17055 | 38260 ft | 421 kts | 348° |
| 2026-05-01 15:26 | 46.53676 | 22.14802 | 38261 ft | 421 kts | 348° |
| 2026-05-01 15:26 | 46.59322 | 22.12544 | 38264 ft | 421 kts | 348° |
| 2026-05-01 15:27 | 46.64979 | 22.10278 | 38264 ft | 422 kts | 348° |
| 2026-05-01 15:28 | 46.73467 | 22.06867 | 38271 ft | 422 kts | 349° |
| 2026-05-01 15:28 | 46.79108 | 22.04594 | 38273 ft | 421 kts | 349° |
| 2026-05-01 15:29 | 46.87559 | 22.01179 | 38282 ft | 419 kts | 349° |
| 2026-05-01 15:30 | 46.97811 | 21.97022 | 38289 ft | 416 kts | 349° |
| 2026-05-01 15:31 | 47.15430 | 21.89840 | 38294 ft | 413 kts | 349° |
| 2026-05-01 15:32 | 47.26482 | 21.85308 | 38285 ft | 412 kts | 349° |
| 2026-05-01 15:34 | 47.42959 | 21.78451 | 38295 ft | 411 kts | 349° |